Main page
METAR-TAF:

METAR-TAF

Airports :

Monte Real Air Base

Monte Real, Portugal

latitude: 39-49-52N, longitude: 008-53-14W, elevation: 57 m

Current weather observation

The report was made 31 minutes ago, at 21:00 UTC
Wind 2 kt from the Southeast
Temperature 8°C
Humidity 66%
Pressure 1025 hPa
Visibility 10 km or more
no clouds below 1500 m and no cumulonimbus

METAR: LPMR 222100Z 14002KT CAVOK 08/02 Q1025

Time: 21:31 (21:31 UTC)

Forecast

The report was made 4 hours and 28 minutes ago, at 17:03 UTC
Forecast valid from 22 at 18 UTC to 23 at 18 UTC
Wind 8 kt from the East
Visibility 10 km or more
no clouds below 1500 m and no cumulonimbus

TAF: LPMR 221703Z 2218/2318 10008KT CAVOK

Weather observations and forecasts of more than 4000 airports (METAR and TAF reports).

The available stations are represented by yellow and red dots on the map.

Hover mouse over dot to see the name of the station.

Then click to see weather observations and forecasts.

To change the map : click on the green buttons with a black cross to zoom in, on the green button with a dash to zoom out, or on the green arrows for adjacent maps.


METAR-TAF: